sensor_id;sensor_type;location;lat;lon;timestamp;P1;durP1;ratioP1;P2;durP2;ratioP2
20138;SDS011;10230;51.502;10.800;2022-07-12T00:01:20;4.80;;;4.40;;
20138;SDS011;10230;51.502;10.800;2022-07-12T00:03:46;4.87;;;4.47;;
20138;SDS011;10230;51.502;10.800;2022-07-12T00:06:12;4.20;;;3.90;;
20138;SDS011;10230;51.502;10.800;2022-07-12T00:08:39;4.70;;;4.30;;
20138;SDS011;10230;51.502;10.800;2022-07-12T00:11:05;4.60;;;4.20;;
20138;SDS011;10230;51.502;10.800;2022-07-12T00:13:31;6.35;;;4.95;;
20138;SDS011;10230;51.502;10.800;2022-07-12T00:15:57;4.57;;;4.17;;
20138;SDS011;10230;51.502;10.800;2022-07-12T00:18:24;5.28;;;4.78;;
20138;SDS011;10230;51.502;10.800;2022-07-12T00:20:50;5.13;;;4.60;;
20138;SDS011;10230;51.502;10.800;2022-07-12T00:23:16;7.23;;;6.53;;
20138;SDS011;10230;51.502;10.800;2022-07-12T00:25:42;8.57;;;6.60;;
20138;SDS011;10230;51.502;10.800;2022-07-12T00:28:08;7.97;;;7.28;;
20138;SDS011;10230;51.502;10.800;2022-07-12T00:30:35;9.77;;;8.45;;
20138;SDS011;10230;51.502;10.800;2022-07-12T00:33:01;8.77;;;7.87;;
20138;SDS011;10230;51.502;10.800;2022-07-12T00:35:27;19.33;;;9.37;;
20138;SDS011;10230;51.502;10.800;2022-07-12T00:37:53;8.87;;;8.07;;
20138;SDS011;10230;51.502;10.800;2022-07-12T00:40:19;10.97;;;9.47;;
20138;SDS011;10230;51.502;10.800;2022-07-12T00:42:45;33.97;;;9.10;;
20138;SDS011;10230;51.502;10.800;2022-07-12T00:45:11;27.30;;;9.93;;
20138;SDS011;10230;51.502;10.800;2022-07-12T00:47:38;8.57;;;7.77;;
20138;SDS011;10230;51.502;10.800;2022-07-12T00:50:09;9.13;;;8.33;;
20138;SDS011;10230;51.502;10.800;2022-07-12T00:52:36;9.70;;;8.10;;
20138;SDS011;10230;51.502;10.800;2022-07-12T00:55:03;11.43;;;9.03;;
20138;SDS011;10230;51.502;10.800;2022-07-12T00:57:29;9.10;;;8.17;;
20138;SDS011;10230;51.502;10.800;2022-07-12T00:59:55;25.42;;;9.43;;
20138;SDS011;10230;51.502;10.800;2022-07-12T01:02:21;8.17;;;7.47;;
20138;SDS011;10230;51.502;10.800;2022-07-12T01:04:47;10.18;;;9.18;;
20138;SDS011;10230;51.502;10.800;2022-07-12T01:07:13;8.97;;;8.17;;
20138;SDS011;10230;51.502;10.800;2022-07-12T01:09:40;8.85;;;8.05;;
20138;SDS011;10230;51.502;10.800;2022-07-12T01:12:06;8.82;;;8.02;;
20138;SDS011;10230;51.502;10.800;2022-07-12T01:14:33;13.40;;;7.70;;
20138;SDS011;10230;51.502;10.800;2022-07-12T01:17:00;7.30;;;6.70;;
20138;SDS011;10230;51.502;10.800;2022-07-12T01:19:26;8.15;;;7.38;;
20138;SDS011;10230;51.502;10.800;2022-07-12T01:21:53;11.20;;;8.07;;
20138;SDS011;10230;51.502;10.800;2022-07-12T01:24:19;20.50;;;7.75;;
20138;SDS011;10230;51.502;10.800;2022-07-12T01:26:46;8.80;;;7.40;;
20138;SDS011;10230;51.502;10.800;2022-07-12T01:29:13;8.43;;;7.50;;
20138;SDS011;10230;51.502;10.800;2022-07-12T01:31:39;15.43;;;8.13;;
20138;SDS011;10230;51.502;10.800;2022-07-12T01:34:05;9.25;;;7.90;;
20138;SDS011;10230;51.502;10.800;2022-07-12T01:36:32;8.60;;;7.82;;
20138;SDS011;10230;51.502;10.800;2022-07-12T01:38:58;8.48;;;7.78;;
20138;SDS011;10230;51.502;10.800;2022-07-12T01:41:24;8.05;;;7.25;;
20138;SDS011;10230;51.502;10.800;2022-07-12T01:43:51;9.48;;;8.68;;
20138;SDS011;10230;51.502;10.800;2022-07-12T01:46:17;8.77;;;7.93;;
20138;SDS011;10230;51.502;10.800;2022-07-12T01:48:43;9.13;;;8.23;;
20138;SDS011;10230;51.502;10.800;2022-07-12T01:51:09;13.98;;;8.40;;
20138;SDS011;10230;51.502;10.800;2022-07-12T01:53:35;8.25;;;7.55;;
20138;SDS011;10230;51.502;10.800;2022-07-12T01:56:04;8.90;;;8.15;;
20138;SDS011;10230;51.502;10.800;2022-07-12T01:58:30;9.40;;;8.32;;
20138;SDS011;10230;51.502;10.800;2022-07-12T02:00:57;8.13;;;7.35;;
20138;SDS011;10230;51.502;10.800;2022-07-12T02:03:23;8.47;;;7.67;;
20138;SDS011;10230;51.502;10.800;2022-07-12T02:05:49;9.10;;;8.15;;
20138;SDS011;10230;51.502;10.800;2022-07-12T02:08:15;8.50;;;7.70;;
20138;SDS011;10230;51.502;10.800;2022-07-12T02:10:42;9.77;;;8.80;;
20138;SDS011;10230;51.502;10.800;2022-07-12T02:13:08;8.75;;;7.95;;
20138;SDS011;10230;51.502;10.800;2022-07-12T02:15:35;10.00;;;8.57;;
20138;SDS011;10230;51.502;10.800;2022-07-12T02:18:01;10.50;;;9.35;;
20138;SDS011;10230;51.502;10.800;2022-07-12T02:20:28;8.57;;;7.40;;
20138;SDS011;10230;51.502;10.800;2022-07-12T02:22:54;9.18;;;8.18;;
20138;SDS011;10230;51.502;10.800;2022-07-12T02:25:20;8.82;;;7.90;;
20138;SDS011;10230;51.502;10.800;2022-07-12T02:27:46;8.35;;;7.55;;
20138;SDS011;10230;51.502;10.800;2022-07-12T02:30:12;9.07;;;8.27;;
20138;SDS011;10230;51.502;10.800;2022-07-12T02:32:39;8.32;;;7.63;;
20138;SDS011;10230;51.502;10.800;2022-07-12T02:35:05;8.68;;;7.50;;
20138;SDS011;10230;51.502;10.800;2022-07-12T02:37:31;10.38;;;8.52;;
20138;SDS011;10230;51.502;10.800;2022-07-12T02:39:57;10.38;;;8.05;;
20138;SDS011;10230;51.502;10.800;2022-07-12T02:42:42;10.45;;;7.72;;
20138;SDS011;10230;51.502;10.800;2022-07-12T02:45:09;8.02;;;7.22;;
20138;SDS011;10230;51.502;10.800;2022-07-12T02:47:38;7.88;;;7.00;;
20138;SDS011;10230;51.502;10.800;2022-07-12T02:50:05;10.45;;;7.22;;
20138;SDS011;10230;51.502;10.800;2022-07-12T02:52:31;8.73;;;7.53;;
20138;SDS011;10230;51.502;10.800;2022-07-12T02:54:57;8.23;;;7.07;;
20138;SDS011;10230;51.502;10.800;2022-07-12T02:57:23;8.30;;;7.38;;
20138;SDS011;10230;51.502;10.800;2022-07-12T02:59:49;8.10;;;7.40;;
20138;SDS011;10230;51.502;10.800;2022-07-12T03:02:15;10.07;;;7.28;;
20138;SDS011;10230;51.502;10.800;2022-07-12T03:04:41;7.07;;;6.38;;
20138;SDS011;10230;51.502;10.800;2022-07-12T03:07:07;8.48;;;7.38;;
20138;SDS011;10230;51.502;10.800;2022-07-12T03:09:34;30.98;;;8.60;;
20138;SDS011;10230;51.502;10.800;2022-07-12T03:12:00;11.40;;;6.18;;
20138;SDS011;10230;51.502;10.800;2022-07-12T03:14:26;6.45;;;5.63;;
20138;SDS011;10230;51.502;10.800;2022-07-12T03:16:52;8.10;;;6.03;;
20138;SDS011;10230;51.502;10.800;2022-07-12T03:19:18;9.00;;;6.63;;
20138;SDS011;10230;51.502;10.800;2022-07-12T03:21:44;9.60;;;5.82;;
20138;SDS011;10230;51.502;10.800;2022-07-12T03:24:10;7.80;;;6.13;;
20138;SDS011;10230;51.502;10.800;2022-07-12T03:26:36;19.20;;;7.20;;
20138;SDS011;10230;51.502;10.800;2022-07-12T03:29:02;43.67;;;7.97;;
20138;SDS011;10230;51.502;10.800;2022-07-12T03:31:29;13.98;;;6.85;;
20138;SDS011;10230;51.502;10.800;2022-07-12T03:33:55;10.87;;;6.13;;
20138;SDS011;10230;51.502;10.800;2022-07-12T03:36:21;11.27;;;6.73;;
20138;SDS011;10230;51.502;10.800;2022-07-12T03:38:47;26.20;;;7.50;;
20138;SDS011;10230;51.502;10.800;2022-07-12T03:41:14;12.87;;;7.60;;
20138;SDS011;10230;51.502;10.800;2022-07-12T03:43:40;25.35;;;8.05;;
20138;SDS011;10230;51.502;10.800;2022-07-12T03:46:06;10.30;;;6.33;;
20138;SDS011;10230;51.502;10.800;2022-07-12T03:48:32;12.63;;;8.00;;
20138;SDS011;10230;51.502;10.800;2022-07-12T03:50:58;7.30;;;6.60;;
20138;SDS011;10230;51.502;10.800;2022-07-12T03:53:24;30.30;;;9.88;;
20138;SDS011;10230;51.502;10.800;2022-07-12T03:55:50;35.70;;;8.97;;
20138;SDS011;10230;51.502;10.800;2022-07-12T03:58:16;63.15;;;10.07;;
20138;SDS011;10230;51.502;10.800;2022-07-12T04:00:42;10.50;;;7.30;;
20138;SDS011;10230;51.502;10.800;2022-07-12T04:03:11;10.60;;;8.10;;
20138;SDS011;10230;51.502;10.800;2022-07-12T04:05:37;12.32;;;8.13;;
20138;SDS011;10230;51.502;10.800;2022-07-12T04:08:04;8.38;;;7.57;;
20138;SDS011;10230;51.502;10.800;2022-07-12T04:10:30;9.25;;;8.38;;
20138;SDS011;10230;51.502;10.800;2022-07-12T04:12:57;9.85;;;8.93;;
20138;SDS011;10230;51.502;10.800;2022-07-12T04:15:23;11.45;;;8.73;;
20138;SDS011;10230;51.502;10.800;2022-07-12T04:17:49;11.38;;;8.32;;
20138;SDS011;10230;51.502;10.800;2022-07-12T04:20:15;8.95;;;8.20;;
20138;SDS011;10230;51.502;10.800;2022-07-12T04:22:41;8.87;;;7.97;;
20138;SDS011;10230;51.502;10.800;2022-07-12T04:25:07;11.57;;;8.00;;
20138;SDS011;10230;51.502;10.800;2022-07-12T04:27:34;23.27;;;16.90;;
20138;SDS011;10230;51.502;10.800;2022-07-12T04:30:01;10.95;;;8.82;;
20138;SDS011;10230;51.502;10.800;2022-07-12T04:32:27;8.52;;;7.75;;
20138;SDS011;10230;51.502;10.800;2022-07-12T04:34:53;9.00;;;7.85;;
20138;SDS011;10230;51.502;10.800;2022-07-12T04:37:19;8.30;;;6.85;;
20138;SDS011;10230;51.502;10.800;2022-07-12T04:39:45;8.50;;;7.70;;
20138;SDS011;10230;51.502;10.800;2022-07-12T04:42:11;8.70;;;7.63;;
20138;SDS011;10230;51.502;10.800;2022-07-12T04:44:37;7.60;;;7.00;;
20138;SDS011;10230;51.502;10.800;2022-07-12T04:47:03;8.18;;;7.22;;
20138;SDS011;10230;51.502;10.800;2022-07-12T04:49:31;7.30;;;5.95;;
20138;SDS011;10230;51.502;10.800;2022-07-12T04:51:58;8.00;;;5.93;;
20138;SDS011;10230;51.502;10.800;2022-07-12T04:54:24;8.00;;;5.90;;
20138;SDS011;10230;51.502;10.800;2022-07-12T04:56:50;5.80;;;5.20;;
20138;SDS011;10230;51.502;10.800;2022-07-12T04:59:16;5.43;;;4.88;;
20138;SDS011;10230;51.502;10.800;2022-07-12T05:01:42;5.95;;;4.97;;
20138;SDS011;10230;51.502;10.800;2022-07-12T05:04:10;9.25;;;5.25;;
20138;SDS011;10230;51.502;10.800;2022-07-12T05:06:36;9.10;;;5.57;;
20138;SDS011;10230;51.502;10.800;2022-07-12T05:09:02;5.50;;;5.05;;
20138;SDS011;10230;51.502;10.800;2022-07-12T05:11:28;5.03;;;4.53;;
20138;SDS011;10230;51.502;10.800;2022-07-12T05:13:54;5.63;;;5.05;;
20138;SDS011;10230;51.502;10.800;2022-07-12T05:16:20;6.20;;;5.45;;
20138;SDS011;10230;51.502;10.800;2022-07-12T05:18:46;6.32;;;5.75;;
20138;SDS011;10230;51.502;10.800;2022-07-12T05:21:12;5.30;;;4.80;;
20138;SDS011;10230;51.502;10.800;2022-07-12T05:23:38;6.53;;;5.10;;
20138;SDS011;10230;51.502;10.800;2022-07-12T05:26:04;4.70;;;4.18;;
20138;SDS011;10230;51.502;10.800;2022-07-12T05:28:31;4.03;;;3.72;;
20138;SDS011;10230;51.502;10.800;2022-07-12T05:30:57;4.38;;;3.25;;
20138;SDS011;10230;51.502;10.800;2022-07-12T05:33:23;6.13;;;3.95;;
20138;SDS011;10230;51.502;10.800;2022-07-12T05:35:49;5.25;;;3.92;;
20138;SDS011;10230;51.502;10.800;2022-07-12T05:38:16;3.45;;;3.15;;
20138;SDS011;10230;51.502;10.800;2022-07-12T05:40:42;4.55;;;3.88;;
20138;SDS011;10230;51.502;10.800;2022-07-12T05:43:09;4.63;;;4.20;;
20138;SDS011;10230;51.502;10.800;2022-07-12T05:45:35;6.60;;;5.93;;
20138;SDS011;10230;51.502;10.800;2022-07-12T05:48:01;3.95;;;3.65;;
20138;SDS011;10230;51.502;10.800;2022-07-12T05:50:27;4.53;;;4.10;;
20138;SDS011;10230;51.502;10.800;2022-07-12T05:52:53;5.00;;;4.60;;
20138;SDS011;10230;51.502;10.800;2022-07-12T05:55:38;6.10;;;5.15;;
20138;SDS011;10230;51.502;10.800;2022-07-12T05:58:04;11.15;;;8.38;;
20138;SDS011;10230;51.502;10.800;2022-07-12T06:00:30;10.10;;;9.10;;
20138;SDS011;10230;51.502;10.800;2022-07-12T06:02:57;6.85;;;5.80;;
20138;SDS011;10230;51.502;10.800;2022-07-12T06:05:24;6.50;;;5.90;;
20138;SDS011;10230;51.502;10.800;2022-07-12T06:07:50;39.92;;;9.85;;
20138;SDS011;10230;51.502;10.800;2022-07-12T06:10:16;24.27;;;8.10;;
20138;SDS011;10230;51.502;10.800;2022-07-12T06:12:43;8.90;;;5.90;;
20138;SDS011;10230;51.502;10.800;2022-07-12T06:15:09;10.38;;;7.13;;
20138;SDS011;10230;51.502;10.800;2022-07-12T06:17:35;13.40;;;5.28;;
20138;SDS011;10230;51.502;10.800;2022-07-12T06:20:02;25.25;;;7.32;;
20138;SDS011;10230;51.502;10.800;2022-07-12T06:22:28;57.55;;;11.38;;
20138;SDS011;10230;51.502;10.800;2022-07-12T06:24:54;20.35;;;6.20;;
20138;SDS011;10230;51.502;10.800;2022-07-12T06:27:20;57.67;;;12.00;;
20138;SDS011;10230;51.502;10.800;2022-07-12T06:29:46;10.38;;;4.90;;
20138;SDS011;10230;51.502;10.800;2022-07-12T06:32:16;6.32;;;3.42;;
20138;SDS011;10230;51.502;10.800;2022-07-12T06:34:42;10.70;;;5.57;;
20138;SDS011;10230;51.502;10.800;2022-07-12T06:37:08;9.13;;;6.00;;
20138;SDS011;10230;51.502;10.800;2022-07-12T06:39:35;6.65;;;5.38;;
20138;SDS011;10230;51.502;10.800;2022-07-12T06:42:02;7.53;;;5.55;;
20138;SDS011;10230;51.502;10.800;2022-07-12T06:44:31;6.25;;;4.88;;
20138;SDS011;10230;51.502;10.800;2022-07-12T06:46:58;7.80;;;5.38;;
20138;SDS011;10230;51.502;10.800;2022-07-12T06:49:24;4.28;;;2.83;;
20138;SDS011;10230;51.502;10.800;2022-07-12T06:51:50;5.95;;;3.80;;
20138;SDS011;10230;51.502;10.800;2022-07-12T06:54:16;3.70;;;3.40;;
20138;SDS011;10230;51.502;10.800;2022-07-12T06:56:43;7.45;;;3.88;;
20138;SDS011;10230;51.502;10.800;2022-07-12T06:59:09;8.50;;;5.63;;
20138;SDS011;10230;51.502;10.800;2022-07-12T07:01:38;8.65;;;4.55;;
20138;SDS011;10230;51.502;10.800;2022-07-12T07:04:05;3.72;;;3.35;;
20138;SDS011;10230;51.502;10.800;2022-07-12T07:06:31;2.92;;;2.65;;
20138;SDS011;10230;51.502;10.800;2022-07-12T07:08:57;3.78;;;2.20;;
20138;SDS011;10230;51.502;10.800;2022-07-12T07:11:23;3.00;;;2.72;;
20138;SDS011;10230;51.502;10.800;2022-07-12T07:13:51;3.17;;;2.50;;
20138;SDS011;10230;51.502;10.800;2022-07-12T07:16:17;3.25;;;2.95;;
20138;SDS011;10230;51.502;10.800;2022-07-12T07:18:45;2.88;;;2.22;;
20138;SDS011;10230;51.502;10.800;2022-07-12T07:21:11;2.97;;;2.08;;
20138;SDS011;10230;51.502;10.800;2022-07-12T07:23:37;3.17;;;2.72;;
20138;SDS011;10230;51.502;10.800;2022-07-12T07:26:03;4.78;;;2.40;;
20138;SDS011;10230;51.502;10.800;2022-07-12T07:28:29;4.90;;;2.67;;
20138;SDS011;10230;51.502;10.800;2022-07-12T07:30:56;2.00;;;1.70;;
20138;SDS011;10230;51.502;10.800;2022-07-12T07:33:23;2.08;;;1.95;;
20138;SDS011;10230;51.502;10.800;2022-07-12T07:35:50;1.70;;;1.20;;
20138;SDS011;10230;51.502;10.800;2022-07-12T07:38:17;1.67;;;1.45;;
20138;SDS011;10230;51.502;10.800;2022-07-12T07:40:43;2.90;;;1.27;;
20138;SDS011;10230;51.502;10.800;2022-07-12T07:43:10;1.92;;;1.10;;
20138;SDS011;10230;51.502;10.800;2022-07-12T07:45:38;2.95;;;1.20;;
20138;SDS011;10230;51.502;10.800;2022-07-12T07:48:04;1.00;;;0.90;;
20138;SDS011;10230;51.502;10.800;2022-07-12T07:50:30;0.77;;;0.77;;
20138;SDS011;10230;51.502;10.800;2022-07-12T07:52:57;0.95;;;0.95;;
20138;SDS011;10230;51.502;10.800;2022-07-12T07:55:23;1.52;;;1.00;;
20138;SDS011;10230;51.502;10.800;2022-07-12T07:57:49;0.77;;;0.70;;
20138;SDS011;10230;51.502;10.800;2022-07-12T08:00:15;2.47;;;1.00;;
20138;SDS011;10230;51.502;10.800;2022-07-12T08:02:41;2.92;;;2.00;;
20138;SDS011;10230;51.502;10.800;2022-07-12T08:05:07;2.15;;;1.70;;
20138;SDS011;10230;51.502;10.800;2022-07-12T08:07:33;1.30;;;1.20;;
20138;SDS011;10230;51.502;10.800;2022-07-12T08:09:59;2.70;;;1.48;;
20138;SDS011;10230;51.502;10.800;2022-07-12T08:12:25;1.25;;;0.98;;
20138;SDS011;10230;51.502;10.800;2022-07-12T08:14:51;0.88;;;0.70;;
20138;SDS011;10230;51.502;10.800;2022-07-12T08:17:17;0.40;;;0.40;;
20138;SDS011;10230;51.502;10.800;2022-07-12T08:19:43;1.38;;;0.70;;
20138;SDS011;10230;51.502;10.800;2022-07-12T08:22:09;2.58;;;0.60;;
20138;SDS011;10230;51.502;10.800;2022-07-12T08:24:35;1.48;;;0.50;;
20138;SDS011;10230;51.502;10.800;2022-07-12T08:27:00;1.38;;;0.93;;
20138;SDS011;10230;51.502;10.800;2022-07-12T08:29:26;1.65;;;1.55;;
20138;SDS011;10230;51.502;10.800;2022-07-12T08:31:52;1.58;;;1.23;;
20138;SDS011;10230;51.502;10.800;2022-07-12T08:34:18;1.52;;;0.52;;
20138;SDS011;10230;51.502;10.800;2022-07-12T08:36:44;3.58;;;3.28;;
20138;SDS011;10230;51.502;10.800;2022-07-12T08:39:10;2.10;;;1.65;;
20138;SDS011;10230;51.502;10.800;2022-07-12T08:41:36;1.02;;;0.90;;
20138;SDS011;10230;51.502;10.800;2022-07-12T08:44:01;4.57;;;1.00;;
20138;SDS011;10230;51.502;10.800;2022-07-12T08:46:27;1.85;;;0.70;;
20138;SDS011;10230;51.502;10.800;2022-07-12T08:48:53;1.98;;;0.60;;
20138;SDS011;10230;51.502;10.800;2022-07-12T08:51:20;0.52;;;0.43;;
20138;SDS011;10230;51.502;10.800;2022-07-12T08:53:46;0.95;;;0.43;;
20138;SDS011;10230;51.502;10.800;2022-07-12T08:56:33;0.98;;;0.50;;
20138;SDS011;10230;51.502;10.800;2022-07-12T09:01:45;0.47;;;0.40;;
20138;SDS011;10230;51.502;10.800;2022-07-12T09:06:47;1.60;;;0.70;;
20138;SDS011;10230;51.502;10.800;2022-07-12T09:09:26;2.22;;;2.00;;
20138;SDS011;10230;51.502;10.800;2022-07-12T09:11:56;0.50;;;0.50;;
20138;SDS011;10230;51.502;10.800;2022-07-12T09:14:22;0.52;;;0.40;;
20138;SDS011;10230;51.502;10.800;2022-07-12T09:17:01;1.77;;;0.40;;
20138;SDS011;10230;51.502;10.800;2022-07-12T09:19:30;0.32;;;0.32;;
20138;SDS011;10230;51.502;10.800;2022-07-12T09:21:57;0.40;;;0.40;;
20138;SDS011;10230;51.502;10.800;2022-07-12T09:24:26;0.65;;;0.40;;
20138;SDS011;10230;51.502;10.800;2022-07-12T09:26:53;0.40;;;0.40;;
20138;SDS011;10230;51.502;10.800;2022-07-12T09:29:22;1.55;;;0.90;;
20138;SDS011;10230;51.502;10.800;2022-07-12T09:31:48;1.60;;;0.55;;
20138;SDS011;10230;51.502;10.800;2022-07-12T09:34:34;1.45;;;0.45;;
20138;SDS011;10230;51.502;10.800;2022-07-12T09:37:20;2.67;;;0.70;;
20138;SDS011;10230;51.502;10.800;2022-07-12T09:39:46;1.50;;;0.43;;
20138;SDS011;10230;51.502;10.800;2022-07-12T09:42:13;1.88;;;1.77;;
20138;SDS011;10230;51.502;10.800;2022-07-12T09:44:39;4.45;;;1.25;;
20138;SDS011;10230;51.502;10.800;2022-07-12T09:47:07;1.30;;;0.50;;
20138;SDS011;10230;51.502;10.800;2022-07-12T09:49:37;2.72;;;0.55;;
20138;SDS011;10230;51.502;10.800;2022-07-12T09:52:04;2.65;;;0.40;;
20138;SDS011;10230;51.502;10.800;2022-07-12T09:54:31;1.25;;;1.10;;
20138;SDS011;10230;51.502;10.800;2022-07-12T09:57:03;4.63;;;0.50;;
20138;SDS011;10230;51.502;10.800;2022-07-12T09:59:34;0.57;;;0.52;;
20138;SDS011;10230;51.502;10.800;2022-07-12T10:02:02;0.32;;;0.32;;
20138;SDS011;10230;51.502;10.800;2022-07-12T10:04:30;0.38;;;0.38;;
20138;SDS011;10230;51.502;10.800;2022-07-12T10:06:57;1.83;;;1.17;;
20138;SDS011;10230;51.502;10.800;2022-07-12T10:09:24;2.05;;;0.90;;
20138;SDS011;10230;51.502;10.800;2022-07-12T10:11:51;0.80;;;0.80;;
20138;SDS011;10230;51.502;10.800;2022-07-12T10:14:18;0.55;;;0.55;;
20138;SDS011;10230;51.502;10.800;2022-07-12T10:16:45;0.50;;;0.50;;
20138;SDS011;10230;51.502;10.800;2022-07-12T10:19:21;1.83;;;1.73;;
20138;SDS011;10230;51.502;10.800;2022-07-12T10:21:51;0.70;;;0.60;;
20138;SDS011;10230;51.502;10.800;2022-07-12T10:27:00;1.13;;;1.00;;
20138;SDS011;10230;51.502;10.800;2022-07-12T10:29:46;0.70;;;0.70;;
20138;SDS011;10230;51.502;10.800;2022-07-12T10:34:57;0.60;;;0.60;;
20138;SDS011;10230;51.502;10.800;2022-07-12T10:37:24;1.08;;;1.08;;
20138;SDS011;10230;51.502;10.800;2022-07-12T10:42:39;1.17;;;0.95;;
20138;SDS011;10230;51.502;10.800;2022-07-12T10:45:12;1.02;;;0.70;;
20138;SDS011;10230;51.502;10.800;2022-07-12T10:58:47;1.67;;;1.58;;
20138;SDS011;10230;51.502;10.800;2022-07-12T11:06:27;2.40;;;2.30;;
20138;SDS011;10230;51.502;10.800;2022-07-12T11:09:00;1.80;;;1.15;;
20138;SDS011;10230;51.502;10.800;2022-07-12T11:12:00;1.85;;;0.95;;
20138;SDS011;10230;51.502;10.800;2022-07-12T11:14:20;7.97;;;1.10;;
20138;SDS011;10230;51.502;10.800;2022-07-12T11:16:50;3.88;;;1.10;;
20138;SDS011;10230;51.502;10.800;2022-07-12T11:19:21;4.20;;;1.08;;
20138;SDS011;10230;51.502;10.800;2022-07-12T11:21:51;2.17;;;0.50;;
20138;SDS011;10230;51.502;10.800;2022-07-12T11:24:30;5.47;;;1.20;;
20138;SDS011;10230;51.502;10.800;2022-07-12T11:26:57;3.85;;;0.90;;
20138;SDS011;10230;51.502;10.800;2022-07-12T11:29:24;1.35;;;0.52;;
20138;SDS011;10230;51.502;10.800;2022-07-12T11:31:58;1.95;;;0.68;;
20138;SDS011;10230;51.502;10.800;2022-07-12T11:34:29;1.15;;;1.00;;
20138;SDS011;10230;51.502;10.800;2022-07-12T11:36:56;7.95;;;2.05;;
20138;SDS011;10230;51.502;10.800;2022-07-12T11:39:33;4.07;;;1.13;;
20138;SDS011;10230;51.502;10.800;2022-07-12T11:41:59;0.85;;;0.47;;
20138;SDS011;10230;51.502;10.800;2022-07-12T11:47:10;1.35;;;0.50;;
20138;SDS011;10230;51.502;10.800;2022-07-12T11:49:41;2.53;;;0.70;;
20138;SDS011;10230;51.502;10.800;2022-07-12T11:52:13;3.63;;;1.20;;
20138;SDS011;10230;51.502;10.800;2022-07-12T11:54:45;2.58;;;0.98;;
20138;SDS011;10230;51.502;10.800;2022-07-12T11:57:18;1.95;;;0.73;;
20138;SDS011;10230;51.502;10.800;2022-07-12T11:59:45;0.80;;;0.80;;
20138;SDS011;10230;51.502;10.800;2022-07-12T12:02:11;1.50;;;0.50;;
20138;SDS011;10230;51.502;10.800;2022-07-12T12:04:53;8.50;;;2.28;;
20138;SDS011;10230;51.502;10.800;2022-07-12T12:07:20;4.28;;;0.77;;
20138;SDS011;10230;51.502;10.800;2022-07-12T12:12:25;0.60;;;0.60;;
20138;SDS011;10230;51.502;10.800;2022-07-12T12:15:06;0.43;;;0.40;;
20138;SDS011;10230;51.502;10.800;2022-07-12T12:20:16;0.80;;;0.50;;
20138;SDS011;10230;51.502;10.800;2022-07-12T12:22:44;3.25;;;0.70;;
20138;SDS011;10230;51.502;10.800;2022-07-12T12:25:11;1.73;;;0.70;;
20138;SDS011;10230;51.502;10.800;2022-07-12T12:27:49;1.90;;;1.00;;
20138;SDS011;10230;51.502;10.800;2022-07-12T12:30:22;2.05;;;0.80;;
20138;SDS011;10230;51.502;10.800;2022-07-12T12:35:37;1.67;;;1.00;;
20138;SDS011;10230;51.502;10.800;2022-07-12T12:38:10;1.50;;;0.60;;
20138;SDS011;10230;51.502;10.800;2022-07-12T12:40:36;3.70;;;1.88;;
20138;SDS011;10230;51.502;10.800;2022-07-12T12:43:06;3.92;;;2.00;;
20138;SDS011;10230;51.502;10.800;2022-07-12T12:45:32;0.65;;;0.55;;
20138;SDS011;10230;51.502;10.800;2022-07-12T12:48:02;1.63;;;0.80;;
20138;SDS011;10230;51.502;10.800;2022-07-12T12:53:11;6.57;;;1.48;;
20138;SDS011;10230;51.502;10.800;2022-07-12T12:55:37;10.48;;;2.67;;
20138;SDS011;10230;51.502;10.800;2022-07-12T12:58:03;2.60;;;2.10;;
20138;SDS011;10230;51.502;10.800;2022-07-12T19:26:02;1.38;;;1.20;;
20138;SDS011;10230;51.502;10.800;2022-07-12T19:28:28;3.05;;;1.27;;
20138;SDS011;10230;51.502;10.800;2022-07-12T19:30:54;2.78;;;1.20;;
20138;SDS011;10230;51.502;10.800;2022-07-12T19:33:20;1.42;;;1.10;;
20138;SDS011;10230;51.502;10.800;2022-07-12T19:35:46;1.77;;;1.40;;
20138;SDS011;10230;51.502;10.800;2022-07-12T19:38:13;2.60;;;2.08;;
20138;SDS011;10230;51.502;10.800;2022-07-12T19:40:39;3.10;;;1.45;;
20138;SDS011;10230;51.502;10.800;2022-07-12T19:43:05;2.13;;;1.70;;
20138;SDS011;10230;51.502;10.800;2022-07-12T19:45:31;3.83;;;1.13;;
20138;SDS011;10230;51.502;10.800;2022-07-12T19:47:57;1.30;;;0.90;;
20138;SDS011;10230;51.502;10.800;2022-07-12T19:50:23;4.55;;;1.02;;
20138;SDS011;10230;51.502;10.800;2022-07-12T19:52:49;2.25;;;1.10;;
20138;SDS011;10230;51.502;10.800;2022-07-12T19:55:16;2.60;;;1.13;;
20138;SDS011;10230;51.502;10.800;2022-07-12T19:57:42;1.60;;;1.50;;
20138;SDS011;10230;51.502;10.800;2022-07-12T20:00:08;4.32;;;1.25;;
20138;SDS011;10230;51.502;10.800;2022-07-12T20:02:34;2.67;;;1.40;;
20138;SDS011;10230;51.502;10.800;2022-07-12T20:05:00;2.40;;;2.20;;
20138;SDS011;10230;51.502;10.800;2022-07-12T20:07:26;1.77;;;1.55;;
20138;SDS011;10230;51.502;10.800;2022-07-12T20:09:52;2.78;;;1.10;;
20138;SDS011;10230;51.502;10.800;2022-07-12T20:12:18;1.45;;;1.00;;
20138;SDS011;10230;51.502;10.800;2022-07-12T20:14:44;2.58;;;1.20;;
20138;SDS011;10230;51.502;10.800;2022-07-12T20:17:12;8.00;;;3.25;;
20138;SDS011;10230;51.502;10.800;2022-07-12T20:19:38;16.35;;;6.80;;
20138;SDS011;10230;51.502;10.800;2022-07-12T20:22:04;15.40;;;9.23;;
20138;SDS011;10230;51.502;10.800;2022-07-12T20:24:30;16.25;;;7.57;;
20138;SDS011;10230;51.502;10.800;2022-07-12T20:26:56;9.77;;;6.00;;
20138;SDS011;10230;51.502;10.800;2022-07-12T20:29:22;10.52;;;5.35;;
20138;SDS011;10230;51.502;10.800;2022-07-12T20:31:48;6.68;;;4.45;;
20138;SDS011;10230;51.502;10.800;2022-07-12T20:34:15;9.45;;;5.30;;
20138;SDS011;10230;51.502;10.800;2022-07-12T20:39:24;10.65;;;5.13;;
20138;SDS011;10230;51.502;10.800;2022-07-12T20:41:50;10.65;;;6.25;;
20138;SDS011;10230;51.502;10.800;2022-07-12T20:44:17;8.40;;;5.07;;
20138;SDS011;10230;51.502;10.800;2022-07-12T20:46:44;7.85;;;4.65;;
20138;SDS011;10230;51.502;10.800;2022-07-12T20:49:10;10.27;;;5.00;;
20138;SDS011;10230;51.502;10.800;2022-07-12T20:51:38;7.50;;;4.53;;
20138;SDS011;10230;51.502;10.800;2022-07-12T20:54:04;6.00;;;3.42;;
20138;SDS011;10230;51.502;10.800;2022-07-12T20:56:30;4.40;;;2.25;;
20138;SDS011;10230;51.502;10.800;2022-07-12T20:58:57;2.47;;;2.08;;
20138;SDS011;10230;51.502;10.800;2022-07-12T21:01:23;3.17;;;1.90;;
20138;SDS011;10230;51.502;10.800;2022-07-12T21:03:50;2.15;;;1.48;;
20138;SDS011;10230;51.502;10.800;2022-07-12T21:06:16;2.40;;;1.20;;
20138;SDS011;10230;51.502;10.800;2022-07-12T21:08:42;2.42;;;1.70;;
20138;SDS011;10230;51.502;10.800;2022-07-12T21:11:08;2.65;;;1.30;;
20138;SDS011;10230;51.502;10.800;2022-07-12T21:13:34;3.70;;;1.30;;
20138;SDS011;10230;51.502;10.800;2022-07-12T21:16:01;2.38;;;1.23;;
20138;SDS011;10230;51.502;10.800;2022-07-12T21:18:27;1.90;;;1.17;;
20138;SDS011;10230;51.502;10.800;2022-07-12T21:20:53;1.40;;;1.30;;
20138;SDS011;10230;51.502;10.800;2022-07-12T21:23:19;3.22;;;1.17;;
20138;SDS011;10230;51.502;10.800;2022-07-12T21:25:45;1.48;;;1.00;;
20138;SDS011;10230;51.502;10.800;2022-07-12T21:28:11;1.20;;;1.10;;
20138;SDS011;10230;51.502;10.800;2022-07-12T21:30:38;1.17;;;1.02;;
20138;SDS011;10230;51.502;10.800;2022-07-12T21:33:04;1.80;;;1.40;;
20138;SDS011;10230;51.502;10.800;2022-07-12T21:35:30;1.30;;;1.00;;
20138;SDS011;10230;51.502;10.800;2022-07-12T21:37:56;2.20;;;1.23;;
20138;SDS011;10230;51.502;10.800;2022-07-12T21:40:23;1.95;;;1.40;;
20138;SDS011;10230;51.502;10.800;2022-07-12T21:42:49;1.38;;;1.10;;